Detall de PIREP

Printer-friendly versionPDF version

[2012/11/20 08:30:00]
Flight IATA:CT2110
Pilot Number:041
Company ICAO:CAT
Aircraft Type:BE58/A
PAX:2
Departing Airport: LEVC
Destination Airport: LEST
Alternate Airport:LEMD
Online: VATSIM
Route:CENTA A33 PRADO A33 CJN A33 HORTA A33 MAGIN A33 INDEG A33 DISKO A33 ZMR A33 BARKO A33 FORNO
Flight Level:F150
No Slew and time accel
No pause
Crash detect
Detect pilot in Cockpit between each 30 and 45 minutes
08:30 Zero fuel Weight: 4592 Lbs, Fuel Weight: 850 Lbs
08:30 VATSIM:LEVC 200800Z VRB01KT CAVOK 13/09 Q1018 NOSIG
08:30 VATSIM:LEST 200800Z 18013KT 150V210 9999 SCT020 BKN045 12/09 Q1013 TEMPO BKN014
08:31 VOICE CATALONIAN
08:34 Parking Brakes off
08:40 Take-off
08:40 Take off Weight: 5439 Lbs
08:40 Wind: 152º @ 001 Knots Heading: 294º
08:40 POS N39º 29´ 18´´ W000º 28´ 47´´
08:40 Gear Up: 113 Knots
08:40 Flaps:1 at 113 Knots
08:40 Flaps:0 at 116 Knots
08:55 Wind:128º@001 Knots Heading: 299º Ground Speed: 172 Knots Altitude 14921 ft
08:55 TOC
08:55 Fuel Weight: 790 Lb
09:07 TOD
09:07 Fuel Weight: 743 Lb
09:07 TOC
09:07 Fuel Weight: 743 Lb
09:10 Wind:000º@000 Knots Heading: 298º Ground Speed: 213 Knots Altitude 15196 ft
09:25 Wind:000º@000 Knots Heading: 296º Ground Speed: 214 Knots Altitude 15196 ft
09:40 Wind:000º@000 Knots Heading: 296º Ground Speed: 214 Knots Altitude 15196 ft
09:55 Wind:124º@003 Knots Heading: 295º Ground Speed: 217 Knots Altitude 15134 ft
10:10 Wind:123º@003 Knots Heading: 304º Ground Speed: 218 Knots Altitude 15131 ft
10:12 TOD
10:12 Fuel Weight: 502 Lb
10:25 Wind:132º@006 Knots Heading: 303º Ground Speed: 203 Knots Altitude 6092 ft
10:40 Wind:183º@012 Knots Heading: 302º Ground Speed: 197 Knots Altitude 3982 ft
10:43 Flaps:1 at 138 Knots
10:49 Flaps:2 at 116 Knots
10:49 Gear Down: 111 Knots
10:54 TouchDown:Rate -37 ft/min Speed: 86 Knots
10:54 Flaps:0 at 76 Knots
10:55 Wind:189º@012 Knots Heading: 167º Ground Speed: 040 Knots Altitude 1213 ft
10:55 VATSIM:LEST 201030Z 19015KT 160V220 9999 SCT018 BKN030 13/10 Q1013 NOSIG
10:55 Land
10:55 Wind:189º@012 Knots
10:55 Heading: 167º
10:55 Flight Duration: 02:15
10:55 Landing Weight: 4981 Lbs
10:55 POS N42º 54´ 08´´ W008º 25´ 01´´
10:57 Parking brakes on
10:57 Block to Block Duration: 02:23
10:57 Final Fuel: 388 Lbls
10:57 Spent Fuel: 462 Lbls
10:57 Flight Length: 440 NM
10:57 TOD Land Length: 124 NM

Exportar CSV

Powered by Drupal - Modified by Danger4k